Time;durP1;ratioP1;P1;durP2;ratioP2;P2;SDS_P1;SDS_P2;PMS_P1;PMS_P2;Temp;Humidity;BMP_temperature;BMP_pressure;BME280_temperature;BME280_humidity;BME280_pressure;Samples;Min_cycle;Max_cycle;Signal;HPM_P1;HPM_P2
2023/01/12 00:00:47;;;;;;;16.23;8.85;;;;;;;4.73;63.34;100148.91;7737795;32;37599;-81
2023/01/12 00:05:04;;;;;;;17.27;8.88;;;;;;;4.82;63.49;100144.84;7737630;32;37217;-80
2023/01/12 00:09:20;;;;;;;16.48;9.18;;;;;;;4.27;65.11;100151.00;7737603;32;39355;-81
2023/01/12 00:13:36;;;;;;;15.85;9.55;;;;;;;4.61;64.09;100146.09;7736701;32;40704;-80
2023/01/12 00:17:52;;;;;;;18.48;8.95;;;;;;;4.82;63.25;100153.75;7729721;32;38536;-80
2023/01/12 00:22:13;;;;;;;15.15;8.95;;;;;;;4.70;63.23;100150.16;7730497;32;37818;-80
2023/01/12 00:26:29;;;;;;;12.90;7.15;;;;;;;4.60;63.77;100149.84;7737429;32;39450;-80
2023/01/12 00:30:46;;;;;;;16.17;7.35;;;;;;;4.60;64.14;100156.06;7737380;32;40042;-81
2023/01/12 00:35:02;;;;;;;11.18;7.22;;;;;;;4.71;64.16;100159.91;7737154;32;37830;-80
2023/01/12 00:39:19;;;;;;;12.32;7.18;;;;;;;5.03;63.43;100162.47;7737192;32;36813;-80
2023/01/12 00:48:11;;;;;;;12.35;7.03;;;;;;;5.17;63.00;100163.94;7710042;32;39814;-80
2023/01/12 00:52:27;;;;;;;16.27;8.40;;;;;;;4.98;63.53;100168.53;7709967;32;38016;-80
2023/01/12 00:56:46;;;;;;;16.62;9.07;;;;;;;4.86;63.44;100176.59;7710054;32;36850;-81
2023/01/12 01:01:07;;;;;;;12.73;8.00;;;;;;;5.04;62.73;100183.03;7696529;32;39074;-81
2023/01/12 01:05:23;;;;;;;17.87;9.63;;;;;;;5.03;62.86;100174.09;7709509;32;39927;-81
2023/01/12 01:09:39;;;;;;;18.27;9.85;;;;;;;4.87;64.02;100186.31;7731279;32;38737;-81
2023/01/12 01:13:56;;;;;;;17.17;9.63;;;;;;;5.06;63.43;100181.75;7734823;32;37153;-81
2023/01/12 01:18:12;;;;;;;15.98;8.95;;;;;;;4.99;63.85;100191.81;7736209;32;39886;-81
2023/01/12 01:22:29;;;;;;;15.32;8.95;;;;;;;5.01;63.79;100199.69;7736065;32;40006;-80
2023/01/12 01:26:45;;;;;;;16.02;9.70;;;;;;;4.92;63.93;100199.19;7725151;32;38656;-79
2023/01/12 01:31:10;;;;;;;16.10;8.57;;;;;;;5.08;63.69;100198.56;7739706;32;37937;-81
2023/01/12 01:35:26;;;;;;;14.52;8.32;;;;;;;5.10;63.81;100198.34;7718241;32;39261;-80
2023/01/12 01:39:42;;;;;;;18.70;10.27;;;;;;;4.74;64.84;100210.78;7712769;32;39802;-80
2023/01/12 01:44:22;;;;;;;19.15;9.73;;;;;;;5.04;64.47;100210.06;7712625;32;38071;-81
2023/01/12 01:48:38;;;;;;;13.10;7.95;;;;;;;4.97;64.50;100209.31;7712797;32;36762;-81
2023/01/12 01:53:17;;;;;;;13.45;8.18;;;;;;;5.25;63.63;100209.59;7699034;32;40417;-80
2023/01/12 01:57:46;;;;;;;12.13;6.72;;;;;;;5.26;64.03;100200.44;7700331;32;40215;-81
2023/01/12 02:02:03;;;;;;;14.50;7.55;;;;;;;5.34;64.10;100201.19;7712576;32;38222;-80
2023/01/12 02:06:23;;;;;;;14.25;6.95;;;;;;;5.26;64.09;100197.75;7724139;32;37850;-82
2023/01/12 02:10:40;;;;;;;12.23;6.80;;;;;;;5.33;64.17;100202.22;7739291;32;40092;-81
2023/01/12 02:20:01;;;;;;;11.70;7.00;;;;;;;5.36;63.83;100204.47;7727630;32;38096;-80
2023/01/12 02:24:29;;;;;;;11.90;6.10;;;;;;;5.45;63.66;100200.44;7739131;32;37916;-80
2023/01/12 02:29:14;;;;;;;13.27;6.75;;;;;;;5.59;63.51;100204.59;7727108;32;40110;-81
2023/01/12 02:33:51;;;;;;;18.00;9.32;;;;;;;5.29;65.00;100212.66;7712166;32;39631;-81
2023/01/12 02:38:41;;;;;;;14.35;8.30;;;;;;;5.45;63.98;100211.25;7711478;32;37976;-81
2023/01/12 02:43:23;;;;;;;14.07;8.27;;;;;;;5.09;64.86;100212.91;7701164;32;37279;-80
2023/01/12 02:47:55;;;;;;;14.48;7.57;;;;;;;5.06;64.73;100210.66;7699285;32;39261;-80
2023/01/12 02:52:15;;;;;;;14.32;7.80;;;;;;;5.34;64.17;100222.81;7699284;32;39887;-82
2023/01/12 02:56:36;;;;;;;15.35;7.20;;;;;;;5.40;63.92;100224.63;7698635;32;38805;-81
2023/01/12 03:00:55;;;;;;;13.18;7.50;;;;;;;5.37;63.94;100214.25;7698479;32;37145;-81
2023/01/12 03:05:12;;;;;;;13.55;7.68;;;;;;;5.36;64.27;100226.09;7698454;32;39312;-81
2023/01/12 03:09:44;;;;;;;16.02;8.05;;;;;;;5.43;63.83;100216.03;7732676;32;40043;-80
2023/01/12 03:14:01;;;;;;;21.50;9.23;;;;;;;5.34;64.34;100215.53;7738193;32;37883;-80
2023/01/12 03:18:39;;;;;;;13.80;7.62;;;;;;;5.15;65.08;100225.50;7724859;32;37102;-80
2023/01/12 03:23:12;;;;;;;14.82;7.85;;;;;;;5.24;64.97;100224.19;7726032;32;40059;-81
2023/01/12 03:27:38;;;;;;;15.15;8.55;;;;;;;5.36;64.86;100223.41;7738330;32;39711;-79
2023/01/12 03:31:55;;;;;;;17.05;8.93;;;;;;;5.31;64.91;100225.97;7725408;32;38662;-80
2023/01/12 03:36:29;;;;;;;15.23;8.25;;;;;;;5.15;65.37;100217.41;7724630;32;37061;-80
2023/01/12 03:40:50;;;;;;;14.65;7.72;;;;;;;5.25;65.17;100219.59;7738301;32;39434;-80
2023/01/12 03:45:09;;;;;;;14.20;8.13;;;;;;;5.54;64.41;100215.28;7724564;32;40766;-80
2023/01/12 03:49:42;;;;;;;13.35;7.50;;;;;;;5.42;64.35;100212.50;7736772;32;37982;-80
2023/01/12 03:53:58;;;;;;;14.32;8.02;;;;;;;5.52;63.75;100217.38;7698824;32;38002;-80
2023/01/12 03:58:16;;;;;;;14.00;7.68;;;;;;;5.25;64.89;100222.28;7697574;32;39209;-80
2023/01/12 04:02:33;;;;;;;18.87;8.73;;;;;;;5.28;65.22;100216.44;7697517;32;39885;-80
2023/01/12 04:06:49;;;;;;;15.43;8.15;;;;;;;5.37;65.11;100206.16;7701088;32;38665;-81
2023/01/12 04:15:41;;;;;;;17.75;8.88;;;;;;;5.12;65.66;100207.03;7737836;32;39416;-81
2023/01/12 04:19:57;;;;;;;17.60;9.38;;;;;;;4.97;66.18;100199.31;7737543;32;39948;-80
2023/01/12 04:24:14;;;;;;;16.60;8.57;;;;;;;5.00;66.35;100203.44;7737438;32;37994;-81
2023/01/12 04:28:30;;;;;;;19.90;8.95;;;;;;;4.94;66.51;100204.34;7737282;32;37600;-80
2023/01/12 04:32:47;;;;;;;16.15;8.75;;;;;;;5.24;65.43;100205.25;7737684;32;39227;-80
2023/01/12 04:37:03;;;;;;;16.15;8.20;;;;;;;5.18;65.63;100203.44;7737174;32;40063;-81
2023/01/12 04:41:20;;;;;;;16.80;8.80;;;;;;;5.20;65.60;100198.62;7730932;32;38175;-81
2023/01/12 04:45:39;;;;;;;16.60;10.27;;;;;;;5.27;65.57;100193.97;7710297;32;38025;-81
2023/01/12 04:49:55;;;;;;;16.73;8.30;;;;;;;5.40;65.12;100206.50;7710068;32;40259;-81
2023/01/12 04:54:12;;;;;;;14.57;8.18;;;;;;;5.59;64.56;100201.09;7710012;32;40237;-80
2023/01/12 04:58:28;;;;;;;13.52;7.60;;;;;;;5.67;64.17;100194.50;7709991;32;37610;-80
2023/01/12 05:02:44;;;;;;;12.77;7.43;;;;;;;5.69;64.24;100200.50;7713188;32;36919;-77
2023/01/12 05:07:01;;;;;;;13.57;8.00;;;;;;;5.65;64.40;100205.56;7739734;32;39008;-80
2023/01/12 05:11:17;;;;;;;18.05;8.43;;;;;;;5.47;65.29;100211.84;7739934;32;39964;-81
2023/01/12 05:15:34;;;;;;;14.07;7.12;;;;;;;5.70;64.67;100219.22;7739988;32;38720;-81
2023/01/12 05:19:50;;;;;;;13.45;8.25;;;;;;;5.79;64.48;100225.94;7740181;32;36856;-80
2023/01/12 05:24:07;;;;;;;14.57;8.63;;;;;;;5.82;64.48;100230.09;7739808;32;39873;-80
2023/01/12 05:28:23;;;;;;;15.93;8.55;;;;;;;5.63;65.06;100230.13;7739603;32;39982;-80
2023/01/12 05:32:40;;;;;;;15.70;8.38;;;;;;;5.58;65.44;100243.50;7739735;32;38721;-81
2023/01/12 05:36:56;;;;;;;17.98;9.60;;;;;;;5.81;65.12;100236.53;7714055;32;37678;-81
2023/01/12 05:41:13;;;;;;;17.45;9.55;;;;;;;5.69;65.70;100243.78;7719795;32;39148;-81
2023/01/12 05:45:30;;;;;;;16.10;9.38;;;;;;;5.72;65.79;100237.94;7739440;32;40843;-81
2023/01/12 05:49:46;;;;;;;16.33;8.93;;;;;;;5.82;65.71;100249.84;7739081;32;37782;-81
2023/01/12 05:54:02;;;;;;;19.52;10.43;;;;;;;5.84;65.69;100253.16;7739385;32;36848;-80
2023/01/12 05:58:19;;;;;;;21.17;10.93;;;;;;;5.98;65.33;100251.09;7721059;32;39407;-81
2023/01/12 06:02:35;;;;;;;20.92;11.38;;;;;;;5.94;65.65;100251.78;7712406;32;39965;-81
2023/01/12 06:06:52;;;;;;;20.55;10.90;;;;;;;5.84;66.00;100245.03;7716580;32;38761;-82
2023/01/12 06:13:55;;;;;;;21.55;11.15;;;;;;;5.86;66.08;100239.38;7738110;32;37200;-80
2023/01/12 06:15:44;;;;;;;18.52;10.90;;;;;;;5.94;65.68;100247.19;7739206;32;39155;-79
2023/01/12 06:20:01;;;;;;;21.48;10.77;;;;;;;5.76;66.33;100253.50;7739044;32;40905;-80
2023/01/12 06:24:17;;;;;;;22.13;10.75;;;;;;;6.10;65.43;100240.31;7738957;32;38749;-81
2023/01/12 06:28:34;;;;;;;20.15;11.50;;;;;;;6.03;65.66;100260.44;7738288;32;37414;-81
2023/01/12 06:32:51;;;;;;;21.67;11.52;;;;;;;6.18;65.22;100248.13;7725272;32;39447;-80
2023/01/12 06:37:10;;;;;;;19.02;11.25;;;;;;;5.93;65.67;100250.13;7738754;32;39909;-80
2023/01/12 06:46:01;;;;;;;25.12;13.52;;;;;;;5.95;65.73;100261.53;7711857;32;37948;-80
2023/01/12 06:50:18;;;;;;;24.95;13.27;;;;;;;5.78;66.22;100272.19;7712006;32;39288;-81
2023/01/12 06:54:34;;;;;;;24.12;12.30;;;;;;;5.90;66.06;100275.78;7711881;32;41178;-80
2023/01/12 06:58:50;;;;;;;24.45;11.50;;;;;;;5.96;65.97;100283.00;7711805;32;38289;-80
2023/01/12 07:03:12;;;;;;;23.60;12.23;;;;;;;5.83;66.42;100283.16;7711772;32;37321;-80
2023/01/12 07:07:28;;;;;;;23.77;12.40;;;;;;;6.11;65.61;100295.31;7715283;32;39324;-80
2023/01/12 07:11:44;;;;;;;23.02;11.73;;;;;;;5.85;66.70;100291.87;7711369;32;40658;-79
2023/01/12 07:16:03;;;;;;;23.75;13.00;;;;;;;6.11;65.94;100289.91;7715344;32;36968;-80
2023/01/12 07:20:19;;;;;;;26.00;13.98;;;;;;;6.13;66.02;100293.19;7709871;32;37294;-82
2023/01/12 07:24:37;;;;;;;27.80;14.75;;;;;;;6.39;65.47;100292.78;7677684;32;201950;-79
2023/01/12 07:28:55;;;;;;;29.55;14.75;;;;;;;5.66;67.62;100299.19;7684670;32;40798;-79
2023/01/12 07:33:14;;;;;;;27.62;14.40;;;;;;;5.95;67.07;100311.09;7699392;32;38729;-80
2023/01/12 07:37:33;;;;;;;26.40;14.45;;;;;;;6.06;66.95;100308.72;7713544;32;37374;-80
2023/01/12 07:46:25;;;;;;;24.33;13.07;;;;;;;6.06;67.52;100322.25;7731896;32;39725;-73
2023/01/12 07:50:43;;;;;;;28.90;14.70;;;;;;;6.17;69.11;100316.88;7716460;32;38709;-74
2023/01/12 07:54:59;;;;;;;28.05;15.02;;;;;;;5.94;69.75;100322.97;7709936;32;38143;-77
2023/01/12 07:59:16;;;;;;;27.05;14.75;;;;;;;5.89;69.76;100322.81;7710525;32;39288;-80
2023/01/12 08:03:32;;;;;;;24.40;14.23;;;;;;;6.01;68.12;100318.31;7710123;32;39740;-82
2023/01/12 08:07:49;;;;;;;32.10;14.35;;;;;;;6.28;67.36;100317.97;7730771;32;38176;-79
2023/01/12 08:12:07;;;;;;;24.50;14.05;;;;;;;6.38;66.96;100318.25;7736745;32;36235;-80
2023/01/12 08:16:37;;;;;;;27.20;15.20;;;;;;;6.38;66.88;100325.50;7736558;32;39449;-81
2023/01/12 08:20:56;;;;;;;25.20;14.48;;;;;;;6.58;66.66;100330.66;7721260;32;40801;-80
2023/01/12 08:25:17;;;;;;;25.65;14.32;;;;;;;6.27;67.44;100335.25;7700412;32;37823;-80
2023/01/12 08:29:46;;;;;;;27.48;15.68;;;;;;;6.68;66.18;100328.19;7709197;32;37334;-81
2023/01/12 08:34:03;;;;;;;27.48;15.43;;;;;;;6.51;66.73;100335.34;7708889;32;39387;-80
2023/01/12 08:38:19;;;;;;;30.40;16.42;;;;;;;6.56;67.21;100340.91;7696051;32;40743;-81
2023/01/12 08:42:35;;;;;;;30.35;16.35;;;;;;;6.18;68.02;100337.47;7721656;32;38038;-80
2023/01/12 08:46:52;;;;;;;32.35;16.35;;;;;;;6.29;68.23;100352.09;7735941;32;37244;-80
2023/01/12 08:51:09;;;;;;;34.28;13.95;;;;;;;6.45;68.14;100350.66;7736244;32;37888;-80
2023/01/12 08:55:25;;;;;;;28.73;14.27;;;;;;;5.59;71.71;100342.53;7730837;32;40102;-81
2023/01/12 08:59:41;;;;;;;30.40;14.45;;;;;;;5.74;71.63;100349.44;7730909;32;38135;-81
2023/01/12 09:03:58;;;;;;;32.13;14.25;;;;;;;5.42;73.12;100357.72;7733249;32;37244;-80
2023/01/12 09:08:15;;;;;;;32.22;14.98;;;;;;;6.11;70.66;100355.69;7736118;32;39349;-80
2023/01/12 09:12:31;;;;;;;38.03;15.30;;;;;;;5.27;72.76;100356.19;7735862;32;40838;-81
2023/01/12 09:16:48;;;;;;;34.72;15.52;;;;;;;5.52;73.08;100360.72;7731038;32;38017;-80
2023/01/12 09:21:06;;;;;;;26.92;13.73;;;;;;;5.29;74.10;100358.66;7726983;32;37048;-80
2023/01/12 09:25:23;;;;;;;22.13;12.20;;;;;;;6.13;71.40;100360.88;7732432;32;38349;-81
2023/01/12 09:29:39;;;;;;;31.12;13.43;;;;;;;6.16;70.77;100357.72;7733877;32;40898;-81
2023/01/12 09:33:55;;;;;;;25.00;12.98;;;;;;;5.72;72.26;100363.19;7730388;32;38336;-78
2023/01/12 09:38:11;;;;;;;23.48;12.77;;;;;;;5.74;72.10;100363.78;7724244;32;37306;-83
2023/01/12 09:47:06;;;;;;;30.67;16.83;;;;;;;6.61;69.48;100354.56;7715840;32;40861;-80
2023/01/12 09:51:33;;;;;;;36.75;18.48;;;;;;;6.42;70.15;100358.41;7725848;32;37796;-79
2023/01/12 09:56:03;;;;;;;37.65;19.80;;;;;;;6.76;69.31;100352.25;7739373;32;38055;-81
2023/01/12 10:00:19;;;;;;;37.85;15.75;;;;;;;6.42;69.34;100347.56;7739391;32;40085;-79
2023/01/12 10:04:37;;;;;;;24.80;14.75;;;;;;;6.89;68.42;100345.78;7725348;32;40800;-80
2023/01/12 10:08:56;;;;;;;28.27;14.25;;;;;;;6.83;68.49;100351.31;7737547;32;37961;-81
2023/01/12 10:13:13;;;;;;;27.52;13.38;;;;;;;6.59;68.61;100348.56;7696468;32;37054;-81
2023/01/12 10:17:44;;;;;;;24.73;13.23;;;;;;;7.07;67.26;100349.44;7699002;32;40117;-82
2023/01/12 10:22:35;;;;;;;26.52;14.48;;;;;;;6.49;69.19;100356.44;7726988;32;40074;-83
2023/01/12 10:27:03;;;;;;;21.85;13.25;;;;;;;6.94;68.10;100350.50;7713228;32;37778;-80
2023/01/12 10:31:23;;;;;;;21.27;12.10;;;;;;;6.86;67.35;100323.75;7698534;32;36164;-82
2023/01/12 10:35:59;;;;;;;23.95;12.77;;;;;;;7.07;68.98;100336.72;7709642;32;39659;-83
2023/01/12 10:40:26;;;;;;;22.73;10.75;;;;;;;7.15;66.39;100330.94;7733495;32;40039;-84
2023/01/12 10:44:42;;;;;;;24.50;11.75;;;;;;;7.57;65.93;100334.56;7699002;32;39143;-84
2023/01/12 10:49:21;;;;;;;22.65;12.82;;;;;;;7.60;65.57;100318.63;7718060;32;37128;-84
2023/01/12 10:53:45;;;;;;;24.40;13.20;;;;;;;7.83;64.37;100320.47;7738656;32;39398;-82
2023/01/12 10:58:01;;;;;;;23.23;14.75;;;;;;;7.48;65.78;100315.13;7736585;32;40025;-85
2023/01/12 11:02:18;;;;;;;24.00;12.52;;;;;;;7.66;65.33;100304.13;7715675;32;38757;-83
2023/01/12 11:06:35;;;;;;;21.62;12.37;;;;;;;7.88;64.21;100303.44;7710835;32;37036;-82
2023/01/12 11:10:51;;;;;;;22.55;11.27;;;;;;;7.90;64.81;100307.59;7736636;32;39418;-82
2023/01/12 11:15:10;;;;;;;22.02;12.25;;;;;;;7.84;64.10;100302.28;7717011;32;39937;-82
2023/01/12 11:19:30;;;;;;;21.42;12.10;;;;;;;7.63;67.32;100298.34;7711454;32;37771;-81
2023/01/12 11:24:04;;;;;;;19.62;11.77;;;;;;;7.57;66.58;100297.41;7698182;32;37999;-83
2023/01/12 11:28:32;;;;;;;19.45;10.98;;;;;;;7.64;67.23;100292.69;7711666;32;39945;-82
2023/01/12 11:33:03;;;;;;;24.05;12.77;;;;;;;7.57;64.85;100286.56;7711499;32;39838;-83
2023/01/12 11:37:19;;;;;;;22.33;13.38;;;;;;;7.60;65.06;100285.25;7711347;32;38769;-81
2023/01/12 11:43:47;;;;;;;24.08;11.82;;;;;;;7.27;66.92;100270.47;7711308;32;37350;-83
2023/01/12 11:46:27;;;;;;;24.60;13.00;;;;;;;7.67;66.32;100262.31;7711198;32;40610;-76
2023/01/12 11:50:47;;;;;;;25.50;12.35;;;;;;;7.46;68.80;100274.66;7697773;32;39920;-75
2023/01/12 11:55:03;;;;;;;21.50;11.98;;;;;;;8.56;66.86;100258.25;7711037;32;38842;-77
2023/01/12 11:59:58;;;;;;;22.15;11.73;;;;;;;8.83;64.72;100255.69;7710886;32;37216;-76
2023/01/12 12:04:24;;;;;;;23.08;12.10;;;;;;;9.23;61.75;100252.97;7682325;32;39210;-82
2023/01/12 12:09:06;;;;;;;22.62;12.02;;;;;;;9.23;60.16;100251.09;7725500;32;39990;-84
2023/01/12 12:13:26;;;;;;;20.80;11.27;;;;;;;8.50;61.57;100256.53;7723750;32;38124;-83
2023/01/12 12:18:15;;;;;;;23.85;12.15;;;;;;;8.66;61.61;100254.91;7723867;32;36965;-84
2023/01/12 12:22:42;;;;;;;22.87;12.10;;;;;;;8.23;62.94;100262.56;7704676;32;39966;-85
2023/01/12 12:27:30;;;;;;;25.75;13.40;;;;;;;8.04;63.87;100258.44;7737391;32;40846;-83
2023/01/12 12:32:11;;;;;;;24.20;13.40;;;;;;;7.78;64.92;100255.22;7737421;32;38080;-83
2023/01/12 12:36:49;;;;;;;27.00;14.70;;;;;;;7.64;65.30;100249.25;7734521;32;36776;-85
2023/01/12 12:46:32;;;;;;;28.48;15.48;;;;;;;7.72;64.88;100239.91;7737105;32;40754;-84
2023/01/12 12:51:11;;;;;;;24.87;14.10;;;;;;;7.76;64.90;100238.38;7736870;32;38703;-83
2023/01/12 12:55:27;;;;;;;30.08;14.80;;;;;;;7.35;66.03;100240.25;7736900;32;37276;-83
2023/01/12 12:59:58;;;;;;;25.73;14.07;;;;;;;7.94;64.77;100234.63;7736749;32;40139;-85
2023/01/12 13:04:35;;;;;;;29.33;14.48;;;;;;;8.25;63.25;100235.97;7736807;32;40798;-84
2023/01/12 13:08:57;;;;;;;24.58;14.18;;;;;;;8.32;63.40;100229.56;7724394;32;38766;-84
2023/01/12 13:13:26;;;;;;;28.77;13.63;;;;;;;8.41;62.73;100239.78;7736411;32;37372;-84
2023/01/12 13:17:46;;;;;;;23.25;12.70;;;;;;;8.00;63.81;100238.25;7736370;32;40086;-84
2023/01/12 13:22:31;;;;;;;28.12;13.57;;;;;;;8.17;63.63;100241.00;7738503;32;39878;-84
2023/01/12 13:26:51;;;;;;;25.10;12.80;;;;;;;8.37;62.86;100248.69;7719054;32;37849;-83
2023/01/12 13:31:31;;;;;;;24.45;13.23;;;;;;;8.84;61.22;100241.00;7739648;32;37303;-85
2023/01/12 13:35:47;;;;;;;23.62;13.20;;;;;;;8.91;61.13;100237.31;7739728;32;40136;-86
2023/01/12 13:40:06;;;;;;;22.85;13.27;;;;;;;10.07;58.67;100219.09;7739574;32;40055;-84
2023/01/12 13:44:31;;;;;;;24.80;12.75;;;;;;;10.70;55.81;100200.28;7739505;32;38889;-84
2023/01/12 13:48:50;;;;;;;23.67;12.77;;;;;;;12.17;52.02;100197.56;7726435;32;37139;-84
2023/01/12 13:53:21;;;;;;;24.20;12.32;;;;;;;12.67;49.66;100220.53;7725924;32;39167;-84
2023/01/12 13:57:54;;;;;;;24.52;11.98;;;;;;;12.33;50.24;100221.09;7726940;32;40866;-84
2023/01/12 14:02:17;;;;;;;23.00;12.25;;;;;;;12.68;50.38;100211.25;7726847;32;38155;-84
2023/01/12 14:06:40;;;;;;;21.50;12.32;;;;;;;15.37;43.68;100201.78;7739123;32;37234;-84
2023/01/12 14:11:17;;;;;;;21.45;11.63;;;;;;;16.82;39.34;100203.19;7739214;32;39050;-84
2023/01/12 14:20:27;;;;;;;24.30;13.00;;;;;;;19.62;33.93;100175.81;7739103;32;37721;-85
2023/01/12 14:24:43;;;;;;;21.12;12.93;;;;;;;18.58;34.35;100183.34;7739130;32;37321;-85
2023/01/12 14:29:00;;;;;;;22.08;14.27;;;;;;;17.88;35.76;100170.19;7738965;32;40170;-85
2023/01/12 14:33:22;;;;;;;25.85;13.77;;;;;;;16.70;38.17;100178.91;7738219;32;40670;-85
2023/01/12 14:37:41;;;;;;;20.23;12.77;;;;;;;18.48;34.85;100171.78;7738943;32;37801;-85
2023/01/12 14:46:44;;;;;;;21.90;13.50;;;;;;;19.39;32.41;100158.53;7738876;32;40063;-85
2023/01/12 14:51:25;;;;;;;19.55;12.45;;;;;;;17.41;36.01;100173.13;7726157;32;40235;-85
2023/01/12 14:55:43;;;;;;;19.70;12.15;;;;;;;16.39;37.86;100165.69;7738780;32;38894;-85
2023/01/12 15:00:00;;;;;;;21.02;12.10;;;;;;;15.16;40.14;100168.28;7738617;32;37381;-85
2023/01/12 15:04:25;;;;;;;21.98;12.70;;;;;;;13.82;42.72;100168.66;7738713;32;39437;-84
2023/01/12 15:08:56;;;;;;;18.58;12.00;;;;;;;12.87;45.28;100177.84;7724505;32;39994;-85
2023/01/12 15:13:24;;;;;;;20.27;12.05;;;;;;;11.93;47.59;100192.63;7738475;32;39327;-84
2023/01/12 15:26:53;;;;;;;26.00;14.25;;;;;;;9.92;52.32;100189.81;7738248;32;40006;-84
2023/01/12 15:31:30;;;;;;;22.33;13.80;;;;;;;9.60;53.64;100182.41;7738233;32;38715;-86
2023/01/12 15:35:48;;;;;;;20.58;11.50;;;;;;;9.36;53.95;100184.59;7738289;32;37821;-81
2023/01/12 15:40:05;;;;;;;22.98;12.07;;;;;;;8.79;55.48;100196.63;7738212;32;40050;-84
2023/01/12 15:44:22;;;;;;;21.00;11.65;;;;;;;8.52;55.96;100191.91;7737949;32;40805;-84
2023/01/12 15:48:40;;;;;;;22.65;11.77;;;;;;;8.04;57.77;100196.78;7738042;32;37074;-84
2023/01/12 15:52:58;;;;;;;25.15;10.00;;;;;;;8.11;58.01;100198.53;7738031;32;37818;-84
2023/01/12 15:57:15;;;;;;;29.50;12.18;;;;;;;7.97;58.70;100195.28;7737711;32;39922;-83
2023/01/12 16:01:43;;;;;;;24.48;11.45;;;;;;;7.86;59.26;100202.44;7724543;32;40886;-84
2023/01/12 16:06:00;;;;;;;23.65;12.82;;;;;;;7.81;59.94;100213.19;7737812;32;37915;-84
2023/01/12 16:10:17;;;;;;;26.10;13.15;;;;;;;7.52;60.96;100214.03;7737398;32;37088;-83
2023/01/12 16:14:33;;;;;;;22.77;11.40;;;;;;;7.29;62.30;100216.78;7737717;32;39400;-84
2023/01/12 16:18:50;;;;;;;23.62;11.73;;;;;;;7.47;61.93;100213.09;7737668;32;40004;-82
2023/01/12 16:23:06;;;;;;;24.98;12.70;;;;;;;7.16;62.47;100212.47;7737457;32;37890;-82
2023/01/12 16:27:24;;;;;;;24.98;12.48;;;;;;;7.28;62.33;100215.97;7714680;32;37830;-83
2023/01/12 16:31:41;;;;;;;45.50;13.73;;;;;;;7.00;63.41;100214.00;7709789;32;38462;-82
2023/01/12 16:36:00;;;;;;;30.00;13.60;;;;;;;7.04;63.55;100215.19;7709469;32;40262;-83
2023/01/12 16:40:17;;;;;;;28.25;12.10;;;;;;;7.15;63.12;100210.81;7696799;32;38053;-82
2023/01/12 16:44:36;;;;;;;29.90;11.27;;;;;;;7.10;63.45;100214.22;7719519;32;37263;-84
2023/01/12 16:48:54;;;;;;;36.13;12.35;;;;;;;7.27;63.15;100217.03;7708845;32;38955;-83
2023/01/12 16:53:12;;;;;;;27.02;11.57;;;;;;;7.12;63.32;100231.09;7708569;32;39853;-83
2023/01/12 16:57:28;;;;;;;61.10;12.20;;;;;;;7.32;62.54;100219.03;7710005;32;37718;-83
2023/01/12 17:01:45;;;;;;;118.28;15.20;;;;;;;6.95;63.73;100213.91;7713179;32;37957;-82
2023/01/12 17:06:05;;;;;;;71.37;12.23;;;;;;;6.71;64.40;100213.94;7712382;32;39332;-82
2023/01/12 17:10:22;;;;;;;66.62;11.23;;;;;;;6.64;64.08;100218.66;7711142;32;40789;-82
2023/01/12 17:14:38;;;;;;;41.72;11.20;;;;;;;6.58;64.34;100209.56;7712576;32;38040;-81
2023/01/12 17:18:55;;;;;;;54.50;10.88;;;;;;;6.36;64.88;100214.75;7712741;32;37687;-82
2023/01/12 17:23:12;;;;;;;68.40;10.88;;;;;;;6.21;64.79;100219.78;7712726;32;40424;-82
2023/01/12 17:27:29;;;;;;;69.87;12.15;;;;;;;6.31;63.87;100220.03;7712056;32;39968;-82
2023/01/12 17:31:46;;;;;;;42.42;11.02;;;;;;;5.94;64.94;100228.25;7712669;32;38027;-83
2023/01/12 17:36:07;;;;;;;17.55;9.43;;;;;;;6.11;64.07;100224.94;7711882;32;36997;-82
2023/01/12 17:40:26;;;;;;;17.27;9.45;;;;;;;5.94;64.37;100225.53;7712930;32;39162;-83
2023/01/12 17:44:42;;;;;;;20.05;9.93;;;;;;;6.11;63.45;100219.50;7711060;32;40333;-81
2023/01/12 17:49:05;;;;;;;21.85;10.88;;;;;;;5.90;63.66;100234.34;7712165;32;38757;-82
2023/01/12 17:53:21;;;;;;;25.62;12.23;;;;;;;5.71;63.88;100237.13;7712357;32;37365;-84
2023/01/12 17:57:38;;;;;;;39.92;14.60;;;;;;;5.73;63.68;100236.87;7711736;32;39267;-83
2023/01/12 18:01:54;;;;;;;27.45;14.27;;;;;;;5.54;64.51;100241.50;7712540;32;40760;-82
2023/01/12 18:06:12;;;;;;;26.30;11.93;;;;;;;5.63;64.16;100243.66;7711549;32;38627;-82
2023/01/12 18:10:40;;;;;;;36.75;12.93;;;;;;;5.86;63.52;100247.50;7711998;32;37674;-82
2023/01/12 18:14:59;;;;;;;45.20;12.13;;;;;;;5.77;63.52;100238.88;7712034;32;39137;-82
2023/01/12 18:19:17;;;;;;;118.72;13.55;;;;;;;5.73;63.89;100236.87;7711532;32;40833;-82
2023/01/12 18:23:34;;;;;;;40.97;11.40;;;;;;;5.74;63.24;100236.63;7712102;32;38805;-82
2023/01/12 18:27:51;;;;;;;44.95;9.07;;;;;;;5.68;63.48;100240.28;7710193;32;37786;-82
2023/01/12 18:32:07;;;;;;;103.70;10.95;;;;;;;5.61;63.83;100237.66;7712171;32;39453;-82
2023/01/12 18:36:24;;;;;;;15.75;7.72;;;;;;;5.23;64.32;100236.03;7711181;32;40722;-83
2023/01/12 18:40:40;;;;;;;10.07;6.03;;;;;;;5.22;63.95;100233.56;7710535;32;37912;-82
2023/01/12 18:44:59;;;;;;;9.85;5.60;;;;;;;5.31;63.54;100229.47;7712189;32;36878;-82
2023/01/12 18:49:33;;;;;;;10.73;6.37;;;;;;;5.22;62.74;100222.75;7712084;32;39295;-83
2023/01/12 18:53:49;;;;;;;12.40;7.65;;;;;;;4.71;63.02;100224.75;7711998;32;39882;-81
2023/01/12 18:58:05;;;;;;;35.10;10.75;;;;;;;5.10;62.39;100208.31;7711576;32;37976;-84
2023/01/12 19:02:22;;;;;;;49.78;12.05;;;;;;;4.96;62.92;100213.06;7711414;32;37197;-84
2023/01/12 19:06:43;;;;;;;23.23;9.40;;;;;;;4.86;64.04;100202.75;7713929;32;39108;-83
2023/01/12 19:11:11;;;;;;;15.55;8.75;;;;;;;4.87;64.31;100197.13;7738293;32;40000;-83
2023/01/12 19:20:10;;;;;;;11.10;6.47;;;;;;;5.32;61.84;100173.56;7714824;32;37234;-83
2023/01/12 19:29:03;;;;;;;12.85;6.18;;;;;;;4.71;63.31;100168.03;7710750;32;40069;-84
2023/01/12 19:33:20;;;;;;;16.45;6.90;;;;;;;4.49;64.53;100171.12;7711465;32;38378;-83
2023/01/12 19:37:36;;;;;;;14.77;6.95;;;;;;;4.62;64.39;100169.34;7711455;32;37042;-84
2023/01/12 19:46:35;;;;;;;14.30;6.87;;;;;;;4.68;63.88;100173.88;7672500;32;39879;-84
2023/01/12 19:50:52;;;;;;;146.18;14.52;;;;;;;4.70;63.63;100177.97;7690457;32;38708;-82
2023/01/12 19:55:12;;;;;;;32.92;10.32;;;;;;;4.44;64.26;100183.66;7693765;32;37237;-84
2023/01/12 19:59:28;;;;;;;117.50;12.37;;;;;;;4.30;63.98;100178.38;7707756;32;39398;-83
2023/01/12 20:03:44;;;;;;;38.22;12.18;;;;;;;4.54;63.48;100191.25;7707422;32;39818;-83
2023/01/12 20:08:01;;;;;;;80.45;12.85;;;;;;;4.37;64.80;100178.31;7720531;32;37580;-83
2023/01/12 20:12:17;;;;;;;52.05;11.32;;;;;;;4.31;64.91;100179.19;7726503;32;37177;-83
2023/01/12 20:16:33;;;;;;;48.75;12.65;;;;;;;4.40;64.46;100185.97;7692536;32;40265;-82
2023/01/12 20:20:50;;;;;;;245.75;16.75;;;;;;;4.16;65.26;100186.78;7709731;32;39865;-83
2023/01/12 20:25:06;;;;;;;147.68;13.27;;;;;;;4.22;64.72;100183.22;7721950;32;38709;-84
2023/01/12 20:29:23;;;;;;;145.38;14.60;;;;;;;3.94;65.43;100190.69;7715499;32;37049;-83
2023/01/12 20:33:39;;;;;;;59.83;13.15;;;;;;;4.14;64.08;100200.53;7709997;32;39294;-84
2023/01/12 20:37:55;;;;;;;75.90;19.00;;;;;;;4.01;64.14;100189.81;7708900;32;40026;-85
2023/01/12 20:42:11;;;;;;;37.78;12.73;;;;;;;3.78;65.21;100201.16;7709858;32;38729;-85
2023/01/12 20:46:28;;;;;;;27.55;10.80;;;;;;;3.88;64.02;100188.03;7709265;32;37967;-84
2023/01/12 20:50:44;;;;;;;25.00;12.15;;;;;;;4.11;63.40;100182.87;7709368;32;40150;-83
2023/01/12 20:55:01;;;;;;;22.50;12.23;;;;;;;3.64;64.27;100190.47;7734966;32;41037;-84
2023/01/12 20:59:17;;;;;;;19.12;11.02;;;;;;;3.75;63.98;100203.25;7735330;32;37941;-83
2023/01/12 21:03:34;;;;;;;21.73;10.85;;;;;;;3.64;64.48;100200.41;7736437;32;37900;-83
2023/01/12 21:07:50;;;;;;;23.62;11.15;;;;;;;3.68;64.38;100190.88;7720832;32;40523;-81